sensor_id;sensor_type;location;lat;lon;timestamp;P1;durP1;ratioP1;P2;durP2;ratioP2
30519;SDS011;17300;50.374;8.006;2023-04-06T00:00:31;2.50;;;2.20;;
30519;SDS011;17300;50.374;8.006;2023-04-06T00:02:59;2.57;;;2.07;;
30519;SDS011;17300;50.374;8.006;2023-04-06T00:05:26;2.93;;;2.20;;
30519;SDS011;17300;50.374;8.006;2023-04-06T00:07:55;1.97;;;1.87;;
30519;SDS011;17300;50.374;8.006;2023-04-06T00:10:23;2.90;;;2.40;;
30519;SDS011;17300;50.374;8.006;2023-04-06T00:12:49;2.63;;;2.33;;
30519;SDS011;17300;50.374;8.006;2023-04-06T00:15:16;2.30;;;2.03;;
30519;SDS011;17300;50.374;8.006;2023-04-06T00:17:43;2.47;;;2.10;;
30519;SDS011;17300;50.374;8.006;2023-04-06T00:20:11;2.47;;;2.27;;
30519;SDS011;17300;50.374;8.006;2023-04-06T00:22:38;2.67;;;2.10;;
30519;SDS011;17300;50.374;8.006;2023-04-06T00:25:05;2.13;;;1.93;;
30519;SDS011;17300;50.374;8.006;2023-04-06T00:27:32;2.83;;;2.13;;
30519;SDS011;17300;50.374;8.006;2023-04-06T00:29:59;2.30;;;2.10;;
30519;SDS011;17300;50.374;8.006;2023-04-06T00:32:26;2.40;;;2.17;;
30519;SDS011;17300;50.374;8.006;2023-04-06T00:34:53;2.43;;;1.90;;
30519;SDS011;17300;50.374;8.006;2023-04-06T00:37:21;2.10;;;1.83;;
30519;SDS011;17300;50.374;8.006;2023-04-06T00:39:48;2.10;;;1.90;;
30519;SDS011;17300;50.374;8.006;2023-04-06T00:42:16;2.20;;;2.00;;
30519;SDS011;17300;50.374;8.006;2023-04-06T00:44:50;1.90;;;1.70;;
30519;SDS011;17300;50.374;8.006;2023-04-06T00:47:16;2.27;;;2.03;;
30519;SDS011;17300;50.374;8.006;2023-04-06T00:49:43;3.10;;;2.30;;
30519;SDS011;17300;50.374;8.006;2023-04-06T00:52:10;2.30;;;2.10;;
30519;SDS011;17300;50.374;8.006;2023-04-06T00:54:38;1.90;;;1.80;;
30519;SDS011;17300;50.374;8.006;2023-04-06T00:57:05;1.90;;;1.70;;
30519;SDS011;17300;50.374;8.006;2023-04-06T00:59:32;3.17;;;2.10;;
30519;SDS011;17300;50.374;8.006;2023-04-06T01:01:59;3.83;;;2.00;;
30519;SDS011;17300;50.374;8.006;2023-04-06T01:04:26;2.93;;;2.33;;
30519;SDS011;17300;50.374;8.006;2023-04-06T01:06:53;2.20;;;2.00;;
30519;SDS011;17300;50.374;8.006;2023-04-06T01:09:19;2.40;;;2.13;;
30519;SDS011;17300;50.374;8.006;2023-04-06T01:11:48;2.53;;;2.33;;
30519;SDS011;17300;50.374;8.006;2023-04-06T01:14:15;3.07;;;1.93;;
30519;SDS011;17300;50.374;8.006;2023-04-06T01:16:42;3.13;;;2.27;;
30519;SDS011;17300;50.374;8.006;2023-04-06T01:19:09;2.80;;;2.00;;
30519;SDS011;17300;50.374;8.006;2023-04-06T01:21:36;3.60;;;2.30;;
30519;SDS011;17300;50.374;8.006;2023-04-06T01:24:05;2.30;;;2.10;;
30519;SDS011;17300;50.374;8.006;2023-04-06T01:26:33;2.83;;;2.40;;
30519;SDS011;17300;50.374;8.006;2023-04-06T01:29:01;2.67;;;2.20;;
30519;SDS011;17300;50.374;8.006;2023-04-06T01:31:28;3.03;;;2.47;;
30519;SDS011;17300;50.374;8.006;2023-04-06T01:33:56;2.50;;;2.30;;
30519;SDS011;17300;50.374;8.006;2023-04-06T01:36:22;2.53;;;2.10;;
30519;SDS011;17300;50.374;8.006;2023-04-06T01:38:50;2.90;;;2.17;;
30519;SDS011;17300;50.374;8.006;2023-04-06T01:41:18;2.43;;;2.20;;
30519;SDS011;17300;50.374;8.006;2023-04-06T01:43:45;3.93;;;2.27;;
30519;SDS011;17300;50.374;8.006;2023-04-06T01:46:13;2.57;;;2.10;;
30519;SDS011;17300;50.374;8.006;2023-04-06T01:48:39;2.23;;;2.03;;
30519;SDS011;17300;50.374;8.006;2023-04-06T01:51:06;2.40;;;2.20;;
30519;SDS011;17300;50.374;8.006;2023-04-06T01:53:33;2.50;;;2.30;;
30519;SDS011;17300;50.374;8.006;2023-04-06T01:56:00;2.67;;;2.30;;
30519;SDS011;17300;50.374;8.006;2023-04-06T01:58:28;2.40;;;2.20;;
30519;SDS011;17300;50.374;8.006;2023-04-06T02:00:54;2.47;;;2.17;;
30519;SDS011;17300;50.374;8.006;2023-04-06T02:03:21;2.53;;;2.23;;
30519;SDS011;17300;50.374;8.006;2023-04-06T02:05:48;3.73;;;2.07;;
30519;SDS011;17300;50.374;8.006;2023-04-06T02:08:15;2.63;;;2.20;;
30519;SDS011;17300;50.374;8.006;2023-04-06T02:10:42;2.57;;;2.23;;
30519;SDS011;17300;50.374;8.006;2023-04-06T02:13:08;2.67;;;2.43;;
30519;SDS011;17300;50.374;8.006;2023-04-06T02:15:36;2.77;;;2.43;;
30519;SDS011;17300;50.374;8.006;2023-04-06T02:18:03;2.53;;;2.30;;
30519;SDS011;17300;50.374;8.006;2023-04-06T02:20:30;2.67;;;2.30;;
30519;SDS011;17300;50.374;8.006;2023-04-06T02:22:58;2.67;;;2.43;;
30519;SDS011;17300;50.374;8.006;2023-04-06T02:25:25;2.30;;;2.10;;
30519;SDS011;17300;50.374;8.006;2023-04-06T02:27:52;2.47;;;2.27;;
30519;SDS011;17300;50.374;8.006;2023-04-06T02:30:18;2.50;;;2.30;;
30519;SDS011;17300;50.374;8.006;2023-04-06T02:32:47;3.17;;;2.40;;
30519;SDS011;17300;50.374;8.006;2023-04-06T02:35:13;3.27;;;2.60;;
30519;SDS011;17300;50.374;8.006;2023-04-06T02:37:40;3.37;;;2.70;;
30519;SDS011;17300;50.374;8.006;2023-04-06T02:40:08;3.30;;;2.47;;
30519;SDS011;17300;50.374;8.006;2023-04-06T02:42:35;4.97;;;2.70;;
30519;SDS011;17300;50.374;8.006;2023-04-06T02:45:02;3.17;;;2.50;;
30519;SDS011;17300;50.374;8.006;2023-04-06T02:47:29;4.20;;;2.53;;
30519;SDS011;17300;50.374;8.006;2023-04-06T02:49:57;4.83;;;2.57;;
30519;SDS011;17300;50.374;8.006;2023-04-06T02:52:24;3.47;;;2.80;;
30519;SDS011;17300;50.374;8.006;2023-04-06T02:54:51;3.50;;;3.00;;
30519;SDS011;17300;50.374;8.006;2023-04-06T02:57:18;3.20;;;2.90;;
30519;SDS011;17300;50.374;8.006;2023-04-06T02:59:44;3.87;;;2.73;;
30519;SDS011;17300;50.374;8.006;2023-04-06T03:02:11;2.97;;;2.50;;
30519;SDS011;17300;50.374;8.006;2023-04-06T03:04:38;2.90;;;2.40;;
30519;SDS011;17300;50.374;8.006;2023-04-06T03:07:06;3.20;;;2.90;;
30519;SDS011;17300;50.374;8.006;2023-04-06T03:09:33;2.60;;;2.40;;
30519;SDS011;17300;50.374;8.006;2023-04-06T03:11:59;3.53;;;3.07;;
30519;SDS011;17300;50.374;8.006;2023-04-06T03:14:27;3.13;;;2.83;;
30519;SDS011;17300;50.374;8.006;2023-04-06T03:16:54;2.90;;;2.60;;
30519;SDS011;17300;50.374;8.006;2023-04-06T03:19:21;3.27;;;2.60;;
30519;SDS011;17300;50.374;8.006;2023-04-06T03:21:48;3.17;;;2.87;;
30519;SDS011;17300;50.374;8.006;2023-04-06T03:24:17;2.90;;;2.60;;
30519;SDS011;17300;50.374;8.006;2023-04-06T03:26:43;4.03;;;3.07;;
30519;SDS011;17300;50.374;8.006;2023-04-06T03:29:10;3.97;;;2.90;;
30519;SDS011;17300;50.374;8.006;2023-04-06T03:31:37;2.93;;;2.70;;
30519;SDS011;17300;50.374;8.006;2023-04-06T03:34:04;3.13;;;2.50;;
30519;SDS011;17300;50.374;8.006;2023-04-06T03:36:30;4.10;;;3.10;;
30519;SDS011;17300;50.374;8.006;2023-04-06T03:38:57;3.67;;;2.60;;
30519;SDS011;17300;50.374;8.006;2023-04-06T03:41:25;3.30;;;2.70;;
30519;SDS011;17300;50.374;8.006;2023-04-06T03:43:52;3.77;;;2.77;;
30519;SDS011;17300;50.374;8.006;2023-04-06T03:46:19;3.93;;;3.00;;
30519;SDS011;17300;50.374;8.006;2023-04-06T03:48:47;3.30;;;3.00;;
30519;SDS011;17300;50.374;8.006;2023-04-06T03:51:14;4.03;;;2.90;;
30519;SDS011;17300;50.374;8.006;2023-04-06T03:53:41;4.50;;;3.17;;
30519;SDS011;17300;50.374;8.006;2023-04-06T03:56:08;4.23;;;3.30;;
30519;SDS011;17300;50.374;8.006;2023-04-06T03:58:36;3.60;;;3.30;;
30519;SDS011;17300;50.374;8.006;2023-04-06T04:01:03;4.27;;;2.90;;
30519;SDS011;17300;50.374;8.006;2023-04-06T04:03:30;3.40;;;2.97;;
30519;SDS011;17300;50.374;8.006;2023-04-06T04:05:57;4.30;;;3.20;;
30519;SDS011;17300;50.374;8.006;2023-04-06T04:08:24;2.63;;;2.43;;
30519;SDS011;17300;50.374;8.006;2023-04-06T04:10:51;3.30;;;3.00;;
30519;SDS011;17300;50.374;8.006;2023-04-06T04:13:17;3.93;;;2.63;;
30519;SDS011;17300;50.374;8.006;2023-04-06T04:15:46;3.10;;;2.80;;
30519;SDS011;17300;50.374;8.006;2023-04-06T04:18:13;3.27;;;2.87;;
30519;SDS011;17300;50.374;8.006;2023-04-06T04:20:40;4.07;;;3.17;;
30519;SDS011;17300;50.374;8.006;2023-04-06T04:23:07;5.13;;;3.13;;
30519;SDS011;17300;50.374;8.006;2023-04-06T04:25:34;4.77;;;3.07;;
30519;SDS011;17300;50.374;8.006;2023-04-06T04:28:00;3.50;;;3.13;;
30519;SDS011;17300;50.374;8.006;2023-04-06T04:30:27;3.17;;;2.80;;
30519;SDS011;17300;50.374;8.006;2023-04-06T04:32:56;3.17;;;2.87;;
30519;SDS011;17300;50.374;8.006;2023-04-06T04:35:22;3.40;;;3.10;;
30519;SDS011;17300;50.374;8.006;2023-04-06T04:37:49;4.43;;;2.73;;
30519;SDS011;17300;50.374;8.006;2023-04-06T04:40:16;3.90;;;3.33;;
30519;SDS011;17300;50.374;8.006;2023-04-06T04:42:43;3.30;;;3.00;;
30519;SDS011;17300;50.374;8.006;2023-04-06T04:45:10;3.03;;;2.63;;
30519;SDS011;17300;50.374;8.006;2023-04-06T04:47:37;2.87;;;2.57;;
30519;SDS011;17300;50.374;8.006;2023-04-06T04:50:05;3.10;;;2.80;;
30519;SDS011;17300;50.374;8.006;2023-04-06T04:52:32;3.03;;;2.73;;
30519;SDS011;17300;50.374;8.006;2023-04-06T04:54:59;3.20;;;2.87;;
30519;SDS011;17300;50.374;8.006;2023-04-06T04:57:26;3.93;;;3.03;;
30519;SDS011;17300;50.374;8.006;2023-04-06T04:59:53;3.77;;;2.90;;
30519;SDS011;17300;50.374;8.006;2023-04-06T05:02:19;4.10;;;3.40;;
30519;SDS011;17300;50.374;8.006;2023-04-06T05:04:46;3.27;;;2.97;;
30519;SDS011;17300;50.374;8.006;2023-04-06T05:07:14;3.43;;;3.10;;
30519;SDS011;17300;50.374;8.006;2023-04-06T05:09:43;3.33;;;2.97;;
30519;SDS011;17300;50.374;8.006;2023-04-06T05:12:10;4.23;;;3.27;;
30519;SDS011;17300;50.374;8.006;2023-04-06T05:14:37;3.37;;;3.07;;
30519;SDS011;17300;50.374;8.006;2023-04-06T05:17:04;3.60;;;3.30;;
30519;SDS011;17300;50.374;8.006;2023-04-06T05:19:30;5.03;;;3.30;;
30519;SDS011;17300;50.374;8.006;2023-04-06T05:21:57;3.47;;;3.17;;
30519;SDS011;17300;50.374;8.006;2023-04-06T05:24:25;4.80;;;3.47;;
30519;SDS011;17300;50.374;8.006;2023-04-06T05:26:52;3.43;;;3.13;;
30519;SDS011;17300;50.374;8.006;2023-04-06T05:29:19;3.43;;;3.13;;
30519;SDS011;17300;50.374;8.006;2023-04-06T05:31:46;3.60;;;3.30;;
30519;SDS011;17300;50.374;8.006;2023-04-06T05:34:13;3.73;;;3.43;;
30519;SDS011;17300;50.374;8.006;2023-04-06T05:36:40;6.43;;;3.70;;
30519;SDS011;17300;50.374;8.006;2023-04-06T05:39:07;5.17;;;3.57;;
30519;SDS011;17300;50.374;8.006;2023-04-06T05:41:35;3.83;;;3.50;;
30519;SDS011;17300;50.374;8.006;2023-04-06T05:44:01;4.53;;;3.63;;
30519;SDS011;17300;50.374;8.006;2023-04-06T05:46:28;3.80;;;3.40;;
30519;SDS011;17300;50.374;8.006;2023-04-06T05:48:55;4.73;;;3.90;;
30519;SDS011;17300;50.374;8.006;2023-04-06T05:51:22;3.93;;;3.50;;
30519;SDS011;17300;50.374;8.006;2023-04-06T05:53:49;3.80;;;3.40;;
30519;SDS011;17300;50.374;8.006;2023-04-06T05:56:15;3.73;;;3.43;;
30519;SDS011;17300;50.374;8.006;2023-04-06T05:58:43;3.07;;;2.83;;
30519;SDS011;17300;50.374;8.006;2023-04-06T06:01:10;3.47;;;3.17;;
30519;SDS011;17300;50.374;8.006;2023-04-06T06:03:37;3.50;;;3.20;;
30519;SDS011;17300;50.374;8.006;2023-04-06T06:06:05;6.53;;;3.00;;
30519;SDS011;17300;50.374;8.006;2023-04-06T06:08:31;3.20;;;2.97;;
30519;SDS011;17300;50.374;8.006;2023-04-06T06:10:58;3.40;;;3.10;;
30519;SDS011;17300;50.374;8.006;2023-04-06T06:13:25;3.33;;;3.03;;
30519;SDS011;17300;50.374;8.006;2023-04-06T06:15:53;3.70;;;3.23;;
30519;SDS011;17300;50.374;8.006;2023-04-06T06:18:20;3.53;;;3.17;;
30519;SDS011;17300;50.374;8.006;2023-04-06T06:20:47;3.53;;;3.13;;
30519;SDS011;17300;50.374;8.006;2023-04-06T06:23:13;3.50;;;3.00;;
30519;SDS011;17300;50.374;8.006;2023-04-06T06:25:40;3.13;;;2.87;;
30519;SDS011;17300;50.374;8.006;2023-04-06T06:28:07;3.80;;;3.10;;
30519;SDS011;17300;50.374;8.006;2023-04-06T06:30:34;3.77;;;3.00;;
30519;SDS011;17300;50.374;8.006;2023-04-06T06:33:02;3.13;;;2.80;;
30519;SDS011;17300;50.374;8.006;2023-04-06T06:35:29;3.37;;;3.07;;
30519;SDS011;17300;50.374;8.006;2023-04-06T06:37:56;4.60;;;3.10;;
30519;SDS011;17300;50.374;8.006;2023-04-06T06:40:22;3.13;;;2.83;;
30519;SDS011;17300;50.374;8.006;2023-04-06T06:42:51;3.07;;;2.83;;
30519;SDS011;17300;50.374;8.006;2023-04-06T06:45:17;3.03;;;2.73;;
30519;SDS011;17300;50.374;8.006;2023-04-06T06:47:45;3.23;;;3.03;;
30519;SDS011;17300;50.374;8.006;2023-04-06T06:50:13;3.20;;;3.00;;
30519;SDS011;17300;50.374;8.006;2023-04-06T06:52:40;3.50;;;3.20;;
30519;SDS011;17300;50.374;8.006;2023-04-06T06:55:08;3.13;;;2.83;;
30519;SDS011;17300;50.374;8.006;2023-04-06T06:57:35;3.30;;;3.00;;
30519;SDS011;17300;50.374;8.006;2023-04-06T07:00:03;3.58;;;3.00;;
30519;SDS011;17300;50.374;8.006;2023-04-06T07:02:31;3.40;;;3.10;;
30519;SDS011;17300;50.374;8.006;2023-04-06T07:05:00;2.97;;;2.78;;
30519;SDS011;17300;50.374;8.006;2023-04-06T07:07:28;3.10;;;2.90;;
30519;SDS011;17300;50.374;8.006;2023-04-06T07:09:55;3.50;;;3.20;;
30519;SDS011;17300;50.374;8.006;2023-04-06T07:12:22;3.42;;;3.13;;
30519;SDS011;17300;50.374;8.006;2023-04-06T07:14:49;3.15;;;2.85;;
30519;SDS011;17300;50.374;8.006;2023-04-06T07:17:16;3.47;;;3.17;;
30519;SDS011;17300;50.374;8.006;2023-04-06T07:19:42;3.30;;;3.00;;
30519;SDS011;17300;50.374;8.006;2023-04-06T07:22:10;3.95;;;3.47;;
30519;SDS011;17300;50.374;8.006;2023-04-06T07:24:38;3.75;;;3.25;;
30519;SDS011;17300;50.374;8.006;2023-04-06T07:27:05;3.42;;;3.15;;
30519;SDS011;17300;50.374;8.006;2023-04-06T07:29:32;3.05;;;2.85;;
30519;SDS011;17300;50.374;8.006;2023-04-06T07:31:59;3.40;;;3.05;;
30519;SDS011;17300;50.374;8.006;2023-04-06T07:34:26;3.03;;;2.78;;
30519;SDS011;17300;50.374;8.006;2023-04-06T07:36:52;3.40;;;3.10;;
30519;SDS011;17300;50.374;8.006;2023-04-06T07:39:19;3.13;;;2.92;;
30519;SDS011;17300;50.374;8.006;2023-04-06T07:41:47;3.17;;;2.97;;
30519;SDS011;17300;50.374;8.006;2023-04-06T07:44:14;3.85;;;3.33;;
30519;SDS011;17300;50.374;8.006;2023-04-06T07:46:41;3.25;;;3.03;;
30519;SDS011;17300;50.374;8.006;2023-04-06T07:49:11;3.40;;;3.20;;
30519;SDS011;17300;50.374;8.006;2023-04-06T07:51:38;3.25;;;3.03;;
30519;SDS011;17300;50.374;8.006;2023-04-06T07:54:05;3.28;;;3.08;;
30519;SDS011;17300;50.374;8.006;2023-04-06T07:56:32;5.30;;;3.30;;
30519;SDS011;17300;50.374;8.006;2023-04-06T07:59:00;3.50;;;3.20;;
30519;SDS011;17300;50.374;8.006;2023-04-06T08:01:28;3.30;;;3.00;;
30519;SDS011;17300;50.374;8.006;2023-04-06T08:03:54;3.47;;;3.28;;
30519;SDS011;17300;50.374;8.006;2023-04-06T08:06:21;3.10;;;2.90;;
30519;SDS011;17300;50.374;8.006;2023-04-06T08:08:48;3.58;;;3.22;;
30519;SDS011;17300;50.374;8.006;2023-04-06T08:11:15;3.53;;;3.22;;
30519;SDS011;17300;50.374;8.006;2023-04-06T08:13:41;3.80;;;3.50;;
30519;SDS011;17300;50.374;8.006;2023-04-06T08:16:10;3.50;;;3.20;;
30519;SDS011;17300;50.374;8.006;2023-04-06T08:18:36;3.95;;;3.13;;
30519;SDS011;17300;50.374;8.006;2023-04-06T08:21:03;4.00;;;3.60;;
30519;SDS011;17300;50.374;8.006;2023-04-06T08:23:30;4.07;;;3.70;;
30519;SDS011;17300;50.374;8.006;2023-04-06T08:25:57;3.38;;;3.13;;
30519;SDS011;17300;50.374;8.006;2023-04-06T08:28:23;3.45;;;3.20;;
30519;SDS011;17300;50.374;8.006;2023-04-06T08:30:50;3.72;;;3.42;;
30519;SDS011;17300;50.374;8.006;2023-04-06T08:33:18;4.03;;;3.55;;
30519;SDS011;17300;50.374;8.006;2023-04-06T08:35:45;3.33;;;3.08;;
30519;SDS011;17300;50.374;8.006;2023-04-06T08:38:12;3.47;;;3.17;;
30519;SDS011;17300;50.374;8.006;2023-04-06T08:40:39;3.70;;;3.20;;
30519;SDS011;17300;50.374;8.006;2023-04-06T08:43:06;3.50;;;3.10;;
30519;SDS011;17300;50.374;8.006;2023-04-06T08:45:36;3.70;;;3.40;;
30519;SDS011;17300;50.374;8.006;2023-04-06T08:48:04;3.50;;;3.30;;
30519;SDS011;17300;50.374;8.006;2023-04-06T08:50:33;3.53;;;3.22;;
30519;SDS011;17300;50.374;8.006;2023-04-06T08:53:00;3.30;;;3.10;;
30519;SDS011;17300;50.374;8.006;2023-04-06T08:55:28;3.63;;;3.33;;
30519;SDS011;17300;50.374;8.006;2023-04-06T08:57:55;3.92;;;3.63;;
30519;SDS011;17300;50.374;8.006;2023-04-06T09:00:22;3.80;;;3.50;;
30519;SDS011;17300;50.374;8.006;2023-04-06T09:02:50;3.40;;;3.20;;
30519;SDS011;17300;50.374;8.006;2023-04-06T09:05:20;3.58;;;3.28;;
30519;SDS011;17300;50.374;8.006;2023-04-06T09:07:51;3.70;;;3.40;;
30519;SDS011;17300;50.374;8.006;2023-04-06T09:10:18;3.60;;;3.30;;
30519;SDS011;17300;50.374;8.006;2023-04-06T09:12:45;4.18;;;3.53;;
30519;SDS011;17300;50.374;8.006;2023-04-06T09:15:17;3.97;;;3.67;;
30519;SDS011;17300;50.374;8.006;2023-04-06T09:17:45;3.80;;;3.50;;
30519;SDS011;17300;50.374;8.006;2023-04-06T09:20:12;4.22;;;3.67;;
30519;SDS011;17300;50.374;8.006;2023-04-06T09:22:39;3.85;;;3.55;;
30519;SDS011;17300;50.374;8.006;2023-04-06T09:25:09;4.15;;;3.80;;
30519;SDS011;17300;50.374;8.006;2023-04-06T09:27:44;3.55;;;3.30;;
30519;SDS011;17300;50.374;8.006;2023-04-06T09:30:11;3.40;;;3.10;;
30519;SDS011;17300;50.374;8.006;2023-04-06T09:32:44;3.72;;;3.42;;
30519;SDS011;17300;50.374;8.006;2023-04-06T09:35:12;4.25;;;3.90;;
30519;SDS011;17300;50.374;8.006;2023-04-06T09:37:39;3.95;;;3.65;;
30519;SDS011;17300;50.374;8.006;2023-04-06T09:40:06;3.63;;;3.33;;
30519;SDS011;17300;50.374;8.006;2023-04-06T09:42:35;4.10;;;3.70;;
30519;SDS011;17300;50.374;8.006;2023-04-06T09:45:02;4.30;;;3.97;;
30519;SDS011;17300;50.374;8.006;2023-04-06T09:47:29;4.03;;;3.72;;
30519;SDS011;17300;50.374;8.006;2023-04-06T09:49:58;4.22;;;3.83;;
30519;SDS011;17300;50.374;8.006;2023-04-06T09:52:26;4.22;;;3.83;;
30519;SDS011;17300;50.374;8.006;2023-04-06T09:54:58;4.22;;;3.92;;
30519;SDS011;17300;50.374;8.006;2023-04-06T09:57:29;4.88;;;4.38;;
30519;SDS011;17300;50.374;8.006;2023-04-06T10:00:05;4.32;;;3.92;;
30519;SDS011;17300;50.374;8.006;2023-04-06T10:02:36;4.63;;;4.25;;
30519;SDS011;17300;50.374;8.006;2023-04-06T10:05:13;4.65;;;4.25;;
30519;SDS011;17300;50.374;8.006;2023-04-06T10:07:46;5.05;;;4.55;;
30519;SDS011;17300;50.374;8.006;2023-04-06T10:10:16;5.10;;;4.63;;
30519;SDS011;17300;50.374;8.006;2023-04-06T10:12:43;4.93;;;4.47;;
30519;SDS011;17300;50.374;8.006;2023-04-06T10:15:12;5.75;;;5.25;;
30519;SDS011;17300;50.374;8.006;2023-04-06T10:17:39;5.10;;;4.70;;
30519;SDS011;17300;50.374;8.006;2023-04-06T10:20:07;5.75;;;4.70;;
30519;SDS011;17300;50.374;8.006;2023-04-06T10:22:39;5.60;;;5.10;;
30519;SDS011;17300;50.374;8.006;2023-04-06T10:25:15;5.90;;;5.40;;
30519;SDS011;17300;50.374;8.006;2023-04-06T10:27:42;5.22;;;4.72;;
30519;SDS011;17300;50.374;8.006;2023-04-06T10:30:09;5.28;;;4.88;;
30519;SDS011;17300;50.374;8.006;2023-04-06T10:32:38;6.07;;;5.45;;
30519;SDS011;17300;50.374;8.006;2023-04-06T10:35:05;5.70;;;5.20;;
30519;SDS011;17300;50.374;8.006;2023-04-06T10:37:45;5.72;;;5.22;;
30519;SDS011;17300;50.374;8.006;2023-04-06T10:40:20;5.35;;;4.93;;
30519;SDS011;17300;50.374;8.006;2023-04-06T10:42:48;5.60;;;5.10;;
30519;SDS011;17300;50.374;8.006;2023-04-06T10:45:19;5.80;;;5.30;;
30519;SDS011;17300;50.374;8.006;2023-04-06T10:47:47;5.03;;;4.60;;
30519;SDS011;17300;50.374;8.006;2023-04-06T10:50:15;4.93;;;4.53;;
30519;SDS011;17300;50.374;8.006;2023-04-06T10:52:43;4.40;;;4.10;;
30519;SDS011;17300;50.374;8.006;2023-04-06T10:55:11;4.60;;;4.20;;
30519;SDS011;17300;50.374;8.006;2023-04-06T10:57:39;4.95;;;4.55;;
30519;SDS011;17300;50.374;8.006;2023-04-06T11:00:06;5.28;;;4.78;;
30519;SDS011;17300;50.374;8.006;2023-04-06T11:02:34;4.97;;;4.55;;
30519;SDS011;17300;50.374;8.006;2023-04-06T11:05:02;5.18;;;4.72;;
30519;SDS011;17300;50.374;8.006;2023-04-06T11:07:29;5.03;;;4.60;;
30519;SDS011;17300;50.374;8.006;2023-04-06T11:09:56;5.50;;;5.00;;
30519;SDS011;17300;50.374;8.006;2023-04-06T11:12:23;4.63;;;4.22;;
30519;SDS011;17300;50.374;8.006;2023-04-06T11:14:54;4.72;;;4.32;;
30519;SDS011;17300;50.374;8.006;2023-04-06T11:17:27;4.65;;;4.25;;
30519;SDS011;17300;50.374;8.006;2023-04-06T11:19:54;5.30;;;4.32;;
30519;SDS011;17300;50.374;8.006;2023-04-06T11:22:23;5.15;;;4.65;;
30519;SDS011;17300;50.374;8.006;2023-04-06T11:24:50;4.88;;;4.38;;
30519;SDS011;17300;50.374;8.006;2023-04-06T11:27:17;4.80;;;4.40;;
30519;SDS011;17300;50.374;8.006;2023-04-06T11:29:45;4.43;;;4.07;;
30519;SDS011;17300;50.374;8.006;2023-04-06T11:32:19;4.40;;;4.00;;
30519;SDS011;17300;50.374;8.006;2023-04-06T11:34:48;4.55;;;4.13;;
30519;SDS011;17300;50.374;8.006;2023-04-06T11:37:15;4.97;;;4.57;;
30519;SDS011;17300;50.374;8.006;2023-04-06T11:39:46;4.68;;;4.00;;
30519;SDS011;17300;50.374;8.006;2023-04-06T11:42:20;4.57;;;4.18;;
30519;SDS011;17300;50.374;8.006;2023-04-06T11:44:49;4.32;;;3.92;;
30519;SDS011;17300;50.374;8.006;2023-04-06T11:47:17;4.57;;;4.18;;
30519;SDS011;17300;50.374;8.006;2023-04-06T11:49:45;4.32;;;3.92;;
30519;SDS011;17300;50.374;8.006;2023-04-06T11:52:16;4.15;;;3.85;;
30519;SDS011;17300;50.374;8.006;2023-04-06T11:54:45;4.30;;;3.90;;
30519;SDS011;17300;50.374;8.006;2023-04-06T11:57:13;4.20;;;3.88;;
30519;SDS011;17300;50.374;8.006;2023-04-06T11:59:41;4.57;;;4.10;;
30519;SDS011;17300;50.374;8.006;2023-04-06T12:02:08;4.28;;;3.88;;
30519;SDS011;17300;50.374;8.006;2023-04-06T12:04:35;4.63;;;4.22;;
30519;SDS011;17300;50.374;8.006;2023-04-06T12:07:02;4.60;;;3.83;;
30519;SDS011;17300;50.374;8.006;2023-04-06T12:09:30;3.75;;;3.45;;
30519;SDS011;17300;50.374;8.006;2023-04-06T12:11:58;4.32;;;3.92;;
30519;SDS011;17300;50.374;8.006;2023-04-06T12:14:25;4.35;;;3.95;;
30519;SDS011;17300;50.374;8.006;2023-04-06T12:16:52;3.72;;;3.42;;
30519;SDS011;17300;50.374;8.006;2023-04-06T12:19:19;4.40;;;4.00;;
30519;SDS011;17300;50.374;8.006;2023-04-06T12:21:46;5.78;;;3.50;;
30519;SDS011;17300;50.374;8.006;2023-04-06T12:24:12;4.50;;;4.10;;
30519;SDS011;17300;50.374;8.006;2023-04-06T12:26:39;4.10;;;3.75;;
30519;SDS011;17300;50.374;8.006;2023-04-06T12:29:07;3.90;;;3.60;;
30519;SDS011;17300;50.374;8.006;2023-04-06T12:31:34;4.03;;;3.63;;
30519;SDS011;17300;50.374;8.006;2023-04-06T12:34:03;3.85;;;3.55;;
30519;SDS011;17300;50.374;8.006;2023-04-06T12:36:30;3.83;;;3.53;;
30519;SDS011;17300;50.374;8.006;2023-04-06T12:38:57;4.20;;;3.80;;
30519;SDS011;17300;50.374;8.006;2023-04-06T12:41:25;3.83;;;3.45;;
30519;SDS011;17300;50.374;8.006;2023-04-06T12:43:52;4.00;;;3.70;;
30519;SDS011;17300;50.374;8.006;2023-04-06T12:46:20;4.10;;;3.80;;
30519;SDS011;17300;50.374;8.006;2023-04-06T12:48:46;3.97;;;3.57;;
30519;SDS011;17300;50.374;8.006;2023-04-06T12:51:13;4.37;;;3.93;;
30519;SDS011;17300;50.374;8.006;2023-04-06T12:53:42;3.83;;;3.43;;
30519;SDS011;17300;50.374;8.006;2023-04-06T12:56:12;3.60;;;3.30;;
30519;SDS011;17300;50.374;8.006;2023-04-06T12:58:40;4.17;;;3.77;;
30519;SDS011;17300;50.374;8.006;2023-04-06T13:01:07;4.17;;;3.77;;
30519;SDS011;17300;50.374;8.006;2023-04-06T13:03:36;4.50;;;3.90;;
30519;SDS011;17300;50.374;8.006;2023-04-06T13:06:02;4.03;;;3.73;;
30519;SDS011;17300;50.374;8.006;2023-04-06T13:08:29;3.80;;;3.50;;
30519;SDS011;17300;50.374;8.006;2023-04-06T13:10:56;4.20;;;3.80;;
30519;SDS011;17300;50.374;8.006;2023-04-06T13:13:23;4.47;;;4.07;;
30519;SDS011;17300;50.374;8.006;2023-04-06T13:15:51;3.80;;;3.50;;
30519;SDS011;17300;50.374;8.006;2023-04-06T13:18:18;4.37;;;3.97;;
30519;SDS011;17300;50.374;8.006;2023-04-06T13:20:47;4.50;;;4.10;;
30519;SDS011;17300;50.374;8.006;2023-04-06T13:23:14;3.87;;;3.57;;
30519;SDS011;17300;50.374;8.006;2023-04-06T13:25:41;3.73;;;3.43;;
30519;SDS011;17300;50.374;8.006;2023-04-06T13:28:08;4.73;;;3.80;;
30519;SDS011;17300;50.374;8.006;2023-04-06T13:30:35;4.00;;;3.60;;
30519;SDS011;17300;50.374;8.006;2023-04-06T13:33:02;4.47;;;3.93;;
30519;SDS011;17300;50.374;8.006;2023-04-06T13:35:29;5.97;;;4.10;;
30519;SDS011;17300;50.374;8.006;2023-04-06T13:37:57;4.47;;;3.70;;
30519;SDS011;17300;50.374;8.006;2023-04-06T13:40:24;4.13;;;3.73;;
30519;SDS011;17300;50.374;8.006;2023-04-06T13:42:51;4.13;;;3.73;;
30519;SDS011;17300;50.374;8.006;2023-04-06T13:45:21;4.23;;;3.83;;
30519;SDS011;17300;50.374;8.006;2023-04-06T13:47:48;3.67;;;3.37;;
30519;SDS011;17300;50.374;8.006;2023-04-06T13:50:15;3.90;;;3.50;;
30519;SDS011;17300;50.374;8.006;2023-04-06T13:52:42;2.87;;;2.67;;
30519;SDS011;17300;50.374;8.006;2023-04-06T13:55:10;3.33;;;3.03;;
30519;SDS011;17300;50.374;8.006;2023-04-06T13:57:37;2.97;;;2.77;;
30519;SDS011;17300;50.374;8.006;2023-04-06T14:00:04;3.33;;;3.03;;
30519;SDS011;17300;50.374;8.006;2023-04-06T14:02:32;3.23;;;2.73;;
30519;SDS011;17300;50.374;8.006;2023-04-06T14:05:00;3.77;;;2.97;;
30519;SDS011;17300;50.374;8.006;2023-04-06T14:07:26;3.20;;;2.90;;
30519;SDS011;17300;50.374;8.006;2023-04-06T14:09:53;3.23;;;2.87;;
30519;SDS011;17300;50.374;8.006;2023-04-06T14:12:21;2.80;;;2.60;;
30519;SDS011;17300;50.374;8.006;2023-04-06T14:14:48;3.90;;;3.00;;
30519;SDS011;17300;50.374;8.006;2023-04-06T14:17:14;2.70;;;2.50;;
30519;SDS011;17300;50.374;8.006;2023-04-06T14:19:41;2.80;;;2.60;;
30519;SDS011;17300;50.374;8.006;2023-04-06T14:22:08;3.00;;;2.80;;
30519;SDS011;17300;50.374;8.006;2023-04-06T14:24:35;2.67;;;2.47;;
30519;SDS011;17300;50.374;8.006;2023-04-06T14:27:02;2.50;;;2.30;;
30519;SDS011;17300;50.374;8.006;2023-04-06T14:29:30;2.90;;;2.70;;
30519;SDS011;17300;50.374;8.006;2023-04-06T14:31:57;2.93;;;2.73;;
30519;SDS011;17300;50.374;8.006;2023-04-06T14:34:25;3.03;;;2.83;;
30519;SDS011;17300;50.374;8.006;2023-04-06T14:36:52;3.27;;;2.97;;
30519;SDS011;17300;50.374;8.006;2023-04-06T14:39:18;3.40;;;3.10;;
30519;SDS011;17300;50.374;8.006;2023-04-06T14:41:45;3.33;;;2.90;;
30519;SDS011;17300;50.374;8.006;2023-04-06T14:44:13;3.67;;;3.30;;
30519;SDS011;17300;50.374;8.006;2023-04-06T14:46:41;3.10;;;2.83;;
30519;SDS011;17300;50.374;8.006;2023-04-06T14:49:08;3.10;;;2.90;;